sensor_id;sensor_type;location;lat;lon;timestamp;P1;durP1;ratioP1;P2;durP2;ratioP2
60312;SDS011;46158;52.850;6.970;2023-03-23T00:01:24;5.55;;;2.30;;
60312;SDS011;46158;52.850;6.970;2023-03-23T00:03:52;7.43;;;2.22;;
60312;SDS011;46158;52.850;6.970;2023-03-23T00:08:48;5.07;;;2.20;;
60312;SDS011;46158;52.850;6.970;2023-03-23T00:11:19;6.07;;;2.40;;
60312;SDS011;46158;52.850;6.970;2023-03-23T00:13:48;4.72;;;2.30;;
60312;SDS011;46158;52.850;6.970;2023-03-23T00:16:19;7.53;;;2.30;;
60312;SDS011;46158;52.850;6.970;2023-03-23T00:18:46;5.00;;;2.35;;
60312;SDS011;46158;52.850;6.970;2023-03-23T00:21:14;3.17;;;2.13;;
60312;SDS011;46158;52.850;6.970;2023-03-23T00:23:40;4.88;;;2.30;;
60312;SDS011;46158;52.850;6.970;2023-03-23T00:26:10;6.85;;;2.50;;
60312;SDS011;46158;52.850;6.970;2023-03-23T00:28:36;8.40;;;2.70;;
60312;SDS011;46158;52.850;6.970;2023-03-23T00:31:04;5.75;;;2.42;;
60312;SDS011;46158;52.850;6.970;2023-03-23T00:33:33;8.73;;;2.53;;
60312;SDS011;46158;52.850;6.970;2023-03-23T00:36:12;7.45;;;2.60;;
60312;SDS011;46158;52.850;6.970;2023-03-23T00:38:39;7.68;;;2.33;;
60312;SDS011;46158;52.850;6.970;2023-03-23T00:41:05;5.95;;;2.63;;
60312;SDS011;46158;52.850;6.970;2023-03-23T00:43:32;4.97;;;2.50;;
60312;SDS011;46158;52.850;6.970;2023-03-23T00:46:01;6.97;;;2.55;;
60312;SDS011;46158;52.850;6.970;2023-03-23T00:48:28;5.38;;;2.28;;
60312;SDS011;46158;52.850;6.970;2023-03-23T00:50:54;8.45;;;2.80;;
60312;SDS011;46158;52.850;6.970;2023-03-23T00:53:20;8.40;;;2.50;;
60312;SDS011;46158;52.850;6.970;2023-03-23T00:55:47;8.85;;;2.60;;
60312;SDS011;46158;52.850;6.970;2023-03-23T00:58:14;6.30;;;2.50;;
60312;SDS011;46158;52.850;6.970;2023-03-23T01:00:40;8.40;;;2.50;;
60312;SDS011;46158;52.850;6.970;2023-03-23T01:03:07;9.07;;;2.50;;
60312;SDS011;46158;52.850;6.970;2023-03-23T01:05:37;9.20;;;2.50;;
60312;SDS011;46158;52.850;6.970;2023-03-23T01:08:04;6.95;;;2.30;;
60312;SDS011;46158;52.850;6.970;2023-03-23T01:10:31;6.70;;;2.47;;
60312;SDS011;46158;52.850;6.970;2023-03-23T01:13:03;5.53;;;2.50;;
60312;SDS011;46158;52.850;6.970;2023-03-23T01:15:30;5.15;;;2.47;;
60312;SDS011;46158;52.850;6.970;2023-03-23T01:18:01;8.05;;;2.60;;
60312;SDS011;46158;52.850;6.970;2023-03-23T01:20:30;8.05;;;2.53;;
60312;SDS011;46158;52.850;6.970;2023-03-23T01:22:57;6.28;;;2.38;;
60312;SDS011;46158;52.850;6.970;2023-03-23T01:25:26;5.93;;;2.30;;
60312;SDS011;46158;52.850;6.970;2023-03-23T01:27:54;7.05;;;2.38;;
60312;SDS011;46158;52.850;6.970;2023-03-23T01:30:20;7.60;;;2.45;;
60312;SDS011;46158;52.850;6.970;2023-03-23T01:33:06;7.40;;;2.40;;
60312;SDS011;46158;52.850;6.970;2023-03-23T01:35:32;7.75;;;2.60;;
60312;SDS011;46158;52.850;6.970;2023-03-23T01:37:58;7.60;;;2.60;;
60312;SDS011;46158;52.850;6.970;2023-03-23T01:40:25;6.15;;;2.40;;
60312;SDS011;46158;52.850;6.970;2023-03-23T01:42:52;7.70;;;2.53;;
60312;SDS011;46158;52.850;6.970;2023-03-23T01:50:21;9.65;;;2.55;;
60312;SDS011;46158;52.850;6.970;2023-03-23T01:52:49;5.43;;;2.33;;
60312;SDS011;46158;52.850;6.970;2023-03-23T01:55:17;8.98;;;2.60;;
60312;SDS011;46158;52.850;6.970;2023-03-23T01:57:44;5.20;;;2.40;;
60312;SDS011;46158;52.850;6.970;2023-03-23T02:00:10;8.38;;;2.75;;
60312;SDS011;46158;52.850;6.970;2023-03-23T02:02:43;6.60;;;2.70;;
60312;SDS011;46158;52.850;6.970;2023-03-23T02:05:13;6.97;;;2.30;;
60312;SDS011;46158;52.850;6.970;2023-03-23T02:07:42;6.93;;;2.30;;
60312;SDS011;46158;52.850;6.970;2023-03-23T02:10:09;7.63;;;2.58;;
60312;SDS011;46158;52.850;6.970;2023-03-23T02:12:35;7.10;;;2.60;;
60312;SDS011;46158;52.850;6.970;2023-03-23T02:15:00;7.45;;;2.60;;
60312;SDS011;46158;52.850;6.970;2023-03-23T02:20:17;9.18;;;2.50;;
60312;SDS011;46158;52.850;6.970;2023-03-23T02:23:06;6.57;;;2.58;;
60312;SDS011;46158;52.850;6.970;2023-03-23T02:34:29;6.28;;;2.40;;
60312;SDS011;46158;52.850;6.970;2023-03-23T02:40:19;5.75;;;2.30;;
60312;SDS011;46158;52.850;6.970;2023-03-23T02:42:51;8.32;;;2.60;;
60312;SDS011;46158;52.850;6.970;2023-03-23T02:45:20;8.10;;;2.50;;
60312;SDS011;46158;52.850;6.970;2023-03-23T02:47:48;6.25;;;2.50;;
60312;SDS011;46158;52.850;6.970;2023-03-23T02:50:16;7.55;;;2.60;;
60312;SDS011;46158;52.850;6.970;2023-03-23T02:52:44;5.93;;;2.35;;
60312;SDS011;46158;52.850;6.970;2023-03-23T02:55:12;5.07;;;2.35;;
60312;SDS011;46158;52.850;6.970;2023-03-23T02:57:39;8.70;;;2.70;;
60312;SDS011;46158;52.850;6.970;2023-03-23T03:00:06;7.05;;;2.40;;
60312;SDS011;46158;52.850;6.970;2023-03-23T03:02:36;6.57;;;2.40;;
60312;SDS011;46158;52.850;6.970;2023-03-23T03:07:58;5.65;;;2.20;;
60312;SDS011;46158;52.850;6.970;2023-03-23T03:10:28;5.57;;;2.30;;
60312;SDS011;46158;52.850;6.970;2023-03-23T03:13:05;5.28;;;2.60;;
60312;SDS011;46158;52.850;6.970;2023-03-23T03:18:23;5.00;;;2.20;;
60312;SDS011;46158;52.850;6.970;2023-03-23T03:20:58;6.40;;;2.38;;
60312;SDS011;46158;52.850;6.970;2023-03-23T03:23:27;3.97;;;2.30;;
60312;SDS011;46158;52.850;6.970;2023-03-23T03:25:54;5.88;;;2.38;;
60312;SDS011;46158;52.850;6.970;2023-03-23T03:28:22;5.60;;;2.45;;
60312;SDS011;46158;52.850;6.970;2023-03-23T03:30:54;3.92;;;2.15;;
60312;SDS011;46158;52.850;6.970;2023-03-23T03:33:23;6.72;;;2.40;;
60312;SDS011;46158;52.850;6.970;2023-03-23T03:38:20;5.95;;;2.53;;
60312;SDS011;46158;52.850;6.970;2023-03-23T03:40:45;7.10;;;2.35;;
60312;SDS011;46158;52.850;6.970;2023-03-23T03:43:11;5.68;;;2.30;;
60312;SDS011;46158;52.850;6.970;2023-03-23T03:45:36;6.45;;;2.40;;
60312;SDS011;46158;52.850;6.970;2023-03-23T03:48:02;6.03;;;2.40;;
60312;SDS011;46158;52.850;6.970;2023-03-23T03:50:28;7.70;;;2.53;;
60312;SDS011;46158;52.850;6.970;2023-03-23T03:52:54;5.57;;;2.30;;
60312;SDS011;46158;52.850;6.970;2023-03-23T03:55:19;7.30;;;2.70;;
60312;SDS011;46158;52.850;6.970;2023-03-23T03:57:46;6.88;;;2.40;;
60312;SDS011;46158;52.850;6.970;2023-03-23T04:00:12;3.78;;;2.10;;
60312;SDS011;46158;52.850;6.970;2023-03-23T04:02:40;5.20;;;2.40;;
60312;SDS011;46158;52.850;6.970;2023-03-23T04:05:07;6.35;;;2.35;;
60312;SDS011;46158;52.850;6.970;2023-03-23T04:07:35;6.97;;;2.50;;
60312;SDS011;46158;52.850;6.970;2023-03-23T04:10:05;6.15;;;2.28;;
60312;SDS011;46158;52.850;6.970;2023-03-23T04:12:32;6.75;;;2.50;;
60312;SDS011;46158;52.850;6.970;2023-03-23T04:14:58;6.15;;;2.58;;
60312;SDS011;46158;52.850;6.970;2023-03-23T04:17:23;5.88;;;2.30;;
60312;SDS011;46158;52.850;6.970;2023-03-23T04:19:51;4.93;;;2.22;;
60312;SDS011;46158;52.850;6.970;2023-03-23T04:22:17;6.65;;;2.40;;
60312;SDS011;46158;52.850;6.970;2023-03-23T04:24:43;5.10;;;2.30;;
60312;SDS011;46158;52.850;6.970;2023-03-23T04:27:09;4.75;;;2.28;;
60312;SDS011;46158;52.850;6.970;2023-03-23T04:29:37;5.75;;;2.50;;
60312;SDS011;46158;52.850;6.970;2023-03-23T04:32:03;5.10;;;2.30;;
60312;SDS011;46158;52.850;6.970;2023-03-23T04:34:29;8.20;;;2.40;;
60312;SDS011;46158;52.850;6.970;2023-03-23T04:36:57;4.50;;;2.60;;
60312;SDS011;46158;52.850;6.970;2023-03-23T04:39:23;6.88;;;2.35;;
60312;SDS011;46158;52.850;6.970;2023-03-23T04:41:49;6.18;;;2.30;;
60312;SDS011;46158;52.850;6.970;2023-03-23T04:44:16;3.72;;;2.50;;
60312;SDS011;46158;52.850;6.970;2023-03-23T04:46:42;5.18;;;2.42;;
60312;SDS011;46158;52.850;6.970;2023-03-23T04:49:10;5.40;;;2.40;;
60312;SDS011;46158;52.850;6.970;2023-03-23T04:51:36;4.72;;;2.30;;
60312;SDS011;46158;52.850;6.970;2023-03-23T04:54:04;7.30;;;2.60;;
60312;SDS011;46158;52.850;6.970;2023-03-23T04:56:29;4.75;;;2.42;;
60312;SDS011;46158;52.850;6.970;2023-03-23T04:58:55;6.65;;;2.38;;
60312;SDS011;46158;52.850;6.970;2023-03-23T05:01:21;6.57;;;2.50;;
60312;SDS011;46158;52.850;6.970;2023-03-23T05:03:46;5.53;;;2.25;;
60312;SDS011;46158;52.850;6.970;2023-03-23T05:06:12;5.10;;;2.30;;
60312;SDS011;46158;52.850;6.970;2023-03-23T05:08:38;7.55;;;2.15;;
60312;SDS011;46158;52.850;6.970;2023-03-23T05:11:05;5.00;;;2.35;;
60312;SDS011;46158;52.850;6.970;2023-03-23T05:13:32;5.35;;;2.42;;
60312;SDS011;46158;52.850;6.970;2023-03-23T05:15:58;6.68;;;2.30;;
60312;SDS011;46158;52.850;6.970;2023-03-23T05:18:27;6.32;;;2.38;;
60312;SDS011;46158;52.850;6.970;2023-03-23T05:20:54;6.78;;;2.60;;
60312;SDS011;46158;52.850;6.970;2023-03-23T05:26:00;6.82;;;2.30;;
60312;SDS011;46158;52.850;6.970;2023-03-23T05:28:32;8.60;;;2.70;;
60312;SDS011;46158;52.850;6.970;2023-03-23T05:30:57;7.80;;;2.72;;
60312;SDS011;46158;52.850;6.970;2023-03-23T05:33:23;10.13;;;2.60;;
60312;SDS011;46158;52.850;6.970;2023-03-23T05:35:49;9.07;;;2.70;;
60312;SDS011;46158;52.850;6.970;2023-03-23T05:38:15;6.82;;;2.38;;
60312;SDS011;46158;52.850;6.970;2023-03-23T05:40:41;7.43;;;2.40;;
60312;SDS011;46158;52.850;6.970;2023-03-23T05:43:10;8.90;;;2.60;;
60312;SDS011;46158;52.850;6.970;2023-03-23T05:45:37;6.93;;;2.25;;
60312;SDS011;46158;52.850;6.970;2023-03-23T05:48:03;5.82;;;2.25;;
60312;SDS011;46158;52.850;6.970;2023-03-23T05:50:29;5.82;;;2.10;;
60312;SDS011;46158;52.850;6.970;2023-03-23T05:52:55;11.65;;;2.20;;
60312;SDS011;46158;52.850;6.970;2023-03-23T05:55:21;5.57;;;2.03;;
60312;SDS011;46158;52.850;6.970;2023-03-23T05:57:46;7.63;;;2.00;;
60312;SDS011;46158;52.850;6.970;2023-03-23T06:00:12;6.65;;;2.08;;
60312;SDS011;46158;52.850;6.970;2023-03-23T06:02:39;4.85;;;2.00;;
60312;SDS011;46158;52.850;6.970;2023-03-23T06:05:09;5.20;;;2.20;;
60312;SDS011;46158;52.850;6.970;2023-03-23T06:07:35;7.75;;;2.22;;
60312;SDS011;46158;52.850;6.970;2023-03-23T06:10:03;8.23;;;2.20;;
60312;SDS011;46158;52.850;6.970;2023-03-23T06:12:34;10.18;;;2.42;;
60312;SDS011;46158;52.850;6.970;2023-03-23T06:15:00;7.78;;;2.00;;
60312;SDS011;46158;52.850;6.970;2023-03-23T06:17:26;7.53;;;2.30;;
60312;SDS011;46158;52.850;6.970;2023-03-23T06:19:55;8.27;;;2.08;;
60312;SDS011;46158;52.850;6.970;2023-03-23T06:22:21;6.60;;;2.15;;
60312;SDS011;46158;52.850;6.970;2023-03-23T06:24:46;7.78;;;2.17;;
60312;SDS011;46158;52.850;6.970;2023-03-23T06:27:14;6.15;;;2.35;;
60312;SDS011;46158;52.850;6.970;2023-03-23T06:29:41;12.45;;;2.10;;
60312;SDS011;46158;52.850;6.970;2023-03-23T06:32:09;5.97;;;2.00;;
60312;SDS011;46158;52.850;6.970;2023-03-23T06:34:37;10.85;;;2.35;;
60312;SDS011;46158;52.850;6.970;2023-03-23T06:37:03;8.50;;;2.28;;
60312;SDS011;46158;52.850;6.970;2023-03-23T06:39:30;5.32;;;2.00;;
60312;SDS011;46158;52.850;6.970;2023-03-23T06:41:56;5.85;;;1.98;;
60312;SDS011;46158;52.850;6.970;2023-03-23T06:44:24;4.32;;;2.00;;
60312;SDS011;46158;52.850;6.970;2023-03-23T06:46:50;5.13;;;2.10;;
60312;SDS011;46158;52.850;6.970;2023-03-23T06:49:16;7.57;;;2.13;;
60312;SDS011;46158;52.850;6.970;2023-03-23T06:51:41;5.45;;;2.10;;
60312;SDS011;46158;52.850;6.970;2023-03-23T06:54:28;4.40;;;2.00;;
60312;SDS011;46158;52.850;6.970;2023-03-23T06:56:54;4.80;;;1.85;;
60312;SDS011;46158;52.850;6.970;2023-03-23T06:59:20;7.47;;;2.10;;
60312;SDS011;46158;52.850;6.970;2023-03-23T07:01:46;5.75;;;2.10;;
60312;SDS011;46158;52.850;6.970;2023-03-23T07:04:13;4.75;;;1.90;;
60312;SDS011;46158;52.850;6.970;2023-03-23T07:06:41;8.43;;;1.90;;
60312;SDS011;46158;52.850;6.970;2023-03-23T07:09:07;6.47;;;1.92;;
60312;SDS011;46158;52.850;6.970;2023-03-23T07:11:33;3.50;;;1.70;;
60312;SDS011;46158;52.850;6.970;2023-03-23T07:13:58;6.88;;;1.80;;
60312;SDS011;46158;52.850;6.970;2023-03-23T07:16:24;5.22;;;2.30;;
60312;SDS011;46158;52.850;6.970;2023-03-23T07:18:52;8.68;;;2.08;;
60312;SDS011;46158;52.850;6.970;2023-03-23T07:21:19;8.07;;;2.10;;
60312;SDS011;46158;52.850;6.970;2023-03-23T07:23:45;7.38;;;1.90;;
60312;SDS011;46158;52.850;6.970;2023-03-23T07:26:11;4.72;;;1.90;;
60312;SDS011;46158;52.850;6.970;2023-03-23T07:28:38;11.75;;;2.30;;
60312;SDS011;46158;52.850;6.970;2023-03-23T07:31:05;9.57;;;2.47;;
60312;SDS011;46158;52.850;6.970;2023-03-23T07:33:33;6.57;;;1.83;;
60312;SDS011;46158;52.850;6.970;2023-03-23T07:35:59;13.75;;;2.50;;
60312;SDS011;46158;52.850;6.970;2023-03-23T07:38:28;8.25;;;2.08;;
60312;SDS011;46158;52.850;6.970;2023-03-23T07:40:55;7.88;;;2.30;;
60312;SDS011;46158;52.850;6.970;2023-03-23T07:43:21;9.25;;;2.20;;
60312;SDS011;46158;52.850;6.970;2023-03-23T07:45:47;9.93;;;2.30;;
60312;SDS011;46158;52.850;6.970;2023-03-23T07:48:14;9.38;;;2.00;;
60312;SDS011;46158;52.850;6.970;2023-03-23T07:50:41;7.93;;;2.10;;
60312;SDS011;46158;52.850;6.970;2023-03-23T07:53:07;6.93;;;2.13;;
60312;SDS011;46158;52.850;6.970;2023-03-23T07:55:33;10.65;;;2.10;;
60312;SDS011;46158;52.850;6.970;2023-03-23T07:57:59;9.18;;;2.17;;
60312;SDS011;46158;52.850;6.970;2023-03-23T08:00:25;10.82;;;2.33;;
60312;SDS011;46158;52.850;6.970;2023-03-23T08:02:52;11.45;;;2.40;;
60312;SDS011;46158;52.850;6.970;2023-03-23T08:05:20;9.68;;;2.47;;
60312;SDS011;46158;52.850;6.970;2023-03-23T08:07:47;6.45;;;2.30;;
60312;SDS011;46158;52.850;6.970;2023-03-23T08:10:15;10.07;;;2.28;;
60312;SDS011;46158;52.850;6.970;2023-03-23T08:12:42;15.70;;;2.55;;
60312;SDS011;46158;52.850;6.970;2023-03-23T08:15:11;12.00;;;2.50;;
60312;SDS011;46158;52.850;6.970;2023-03-23T08:17:39;10.43;;;2.67;;
60312;SDS011;46158;52.850;6.970;2023-03-23T08:20:07;7.97;;;2.30;;
60312;SDS011;46158;52.850;6.970;2023-03-23T08:22:37;8.52;;;2.45;;
60312;SDS011;46158;52.850;6.970;2023-03-23T08:25:08;16.65;;;2.72;;
60312;SDS011;46158;52.850;6.970;2023-03-23T08:27:35;13.75;;;2.38;;
60312;SDS011;46158;52.850;6.970;2023-03-23T08:30:02;7.10;;;2.33;;
60312;SDS011;46158;52.850;6.970;2023-03-23T08:32:30;8.15;;;2.30;;
60312;SDS011;46158;52.850;6.970;2023-03-23T08:34:56;6.72;;;1.98;;
60312;SDS011;46158;52.850;6.970;2023-03-23T08:37:28;10.15;;;2.30;;
60312;SDS011;46158;52.850;6.970;2023-03-23T08:39:56;12.00;;;2.45;;
60312;SDS011;46158;52.850;6.970;2023-03-23T08:42:25;8.68;;;2.33;;
60312;SDS011;46158;52.850;6.970;2023-03-23T08:44:51;10.43;;;2.45;;
60312;SDS011;46158;52.850;6.970;2023-03-23T08:47:17;10.65;;;2.40;;
60312;SDS011;46158;52.850;6.970;2023-03-23T08:49:43;10.60;;;2.38;;
60312;SDS011;46158;52.850;6.970;2023-03-23T08:52:10;10.43;;;2.40;;
60312;SDS011;46158;52.850;6.970;2023-03-23T08:54:36;12.40;;;2.67;;
60312;SDS011;46158;52.850;6.970;2023-03-23T08:57:03;13.27;;;2.88;;
60312;SDS011;46158;52.850;6.970;2023-03-23T08:59:29;11.63;;;2.55;;
60312;SDS011;46158;52.850;6.970;2023-03-23T09:01:55;10.40;;;2.35;;
60312;SDS011;46158;52.850;6.970;2023-03-23T09:04:20;12.07;;;2.90;;
60312;SDS011;46158;52.850;6.970;2023-03-23T09:06:46;12.30;;;2.85;;
60312;SDS011;46158;52.850;6.970;2023-03-23T09:09:13;9.32;;;2.42;;
60312;SDS011;46158;52.850;6.970;2023-03-23T09:11:39;12.30;;;2.78;;
60312;SDS011;46158;52.850;6.970;2023-03-23T09:14:06;13.43;;;2.67;;
60312;SDS011;46158;52.850;6.970;2023-03-23T09:16:33;11.63;;;2.67;;
60312;SDS011;46158;52.850;6.970;2023-03-23T09:19:00;13.38;;;3.10;;
60312;SDS011;46158;52.850;6.970;2023-03-23T09:21:27;13.65;;;2.80;;
60312;SDS011;46158;52.850;6.970;2023-03-23T09:23:54;17.05;;;2.85;;
60312;SDS011;46158;52.850;6.970;2023-03-23T09:26:24;12.73;;;2.67;;
60312;SDS011;46158;52.850;6.970;2023-03-23T09:28:52;13.45;;;3.20;;
60312;SDS011;46158;52.850;6.970;2023-03-23T09:31:19;12.77;;;2.75;;
60312;SDS011;46158;52.850;6.970;2023-03-23T09:33:46;10.40;;;2.58;;
60312;SDS011;46158;52.850;6.970;2023-03-23T09:36:12;13.02;;;2.55;;
60312;SDS011;46158;52.850;6.970;2023-03-23T09:38:41;12.68;;;2.80;;
60312;SDS011;46158;52.850;6.970;2023-03-23T09:49:26;12.82;;;3.03;;
60312;SDS011;46158;52.850;6.970;2023-03-23T09:55:13;12.88;;;2.90;;
60312;SDS011;46158;52.850;6.970;2023-03-23T10:01:02;16.48;;;3.00;;
60312;SDS011;46158;52.850;6.970;2023-03-23T10:03:48;11.82;;;2.80;;
60312;SDS011;46158;52.850;6.970;2023-03-23T10:06:20;13.88;;;3.00;;
60312;SDS011;46158;52.850;6.970;2023-03-23T10:08:50;12.95;;;3.47;;
60312;SDS011;46158;52.850;6.970;2023-03-23T10:11:22;17.33;;;3.35;;
60312;SDS011;46158;52.850;6.970;2023-03-23T10:16:31;16.00;;;3.17;;
60312;SDS011;46158;52.850;6.970;2023-03-23T10:21:44;12.50;;;2.90;;
60312;SDS011;46158;52.850;6.970;2023-03-23T10:24:19;16.35;;;3.38;;
60312;SDS011;46158;52.850;6.970;2023-03-23T10:29:39;13.50;;;2.95;;
60312;SDS011;46158;52.850;6.970;2023-03-23T10:32:21;15.65;;;3.30;;
60312;SDS011;46158;52.850;6.970;2023-03-23T10:35:04;17.15;;;3.60;;
60312;SDS011;46158;52.850;6.970;2023-03-23T10:37:37;13.00;;;2.83;;
60312;SDS011;46158;52.850;6.970;2023-03-23T10:40:13;14.98;;;3.45;;
60312;SDS011;46158;52.850;6.970;2023-03-23T10:42:43;13.63;;;3.15;;
60312;SDS011;46158;52.850;6.970;2023-03-23T10:45:22;15.60;;;3.65;;
60312;SDS011;46158;52.850;6.970;2023-03-23T10:50:44;14.45;;;3.13;;
60312;SDS011;46158;52.850;6.970;2023-03-23T10:53:34;14.50;;;3.17;;
60312;SDS011;46158;52.850;6.970;2023-03-23T10:56:20;17.45;;;3.30;;
60312;SDS011;46158;52.850;6.970;2023-03-23T10:58:52;17.42;;;3.58;;
60312;SDS011;46158;52.850;6.970;2023-03-23T11:01:19;13.23;;;3.28;;
60312;SDS011;46158;52.850;6.970;2023-03-23T11:03:53;18.38;;;3.50;;
60312;SDS011;46158;52.850;6.970;2023-03-23T11:06:24;13.18;;;3.20;;
60312;SDS011;46158;52.850;6.970;2023-03-23T11:09:08;11.63;;;2.75;;
60312;SDS011;46158;52.850;6.970;2023-03-23T11:11:38;14.73;;;2.97;;
60312;SDS011;46158;52.850;6.970;2023-03-23T11:14:16;13.48;;;3.10;;
60312;SDS011;46158;52.850;6.970;2023-03-23T11:16:44;13.35;;;3.13;;
60312;SDS011;46158;52.850;6.970;2023-03-23T11:19:23;13.18;;;2.88;;
60312;SDS011;46158;52.850;6.970;2023-03-23T11:21:51;11.32;;;2.97;;
60312;SDS011;46158;52.850;6.970;2023-03-23T11:24:22;11.98;;;2.75;;
60312;SDS011;46158;52.850;6.970;2023-03-23T11:26:53;15.02;;;3.00;;
60312;SDS011;46158;52.850;6.970;2023-03-23T11:29:24;14.15;;;2.80;;
60312;SDS011;46158;52.850;6.970;2023-03-23T11:32:14;13.75;;;3.08;;
60312;SDS011;46158;52.850;6.970;2023-03-23T11:34:46;11.65;;;2.67;;
60312;SDS011;46158;52.850;6.970;2023-03-23T11:37:15;10.27;;;2.70;;
60312;SDS011;46158;52.850;6.970;2023-03-23T11:39:59;12.35;;;2.67;;
60312;SDS011;46158;52.850;6.970;2023-03-23T11:42:41;11.73;;;2.60;;
60312;SDS011;46158;52.850;6.970;2023-03-23T11:51:33;11.40;;;2.70;;
60312;SDS011;46158;52.850;6.970;2023-03-23T11:59:03;12.13;;;2.70;;
60312;SDS011;46158;52.850;6.970;2023-03-23T12:09:53;13.77;;;2.78;;
60312;SDS011;46158;52.850;6.970;2023-03-23T12:12:53;13.07;;;2.90;;
60312;SDS011;46158;52.850;6.970;2023-03-23T12:15:25;11.23;;;2.45;;
60312;SDS011;46158;52.850;6.970;2023-03-23T12:26:57;13.45;;;2.72;;
60312;SDS011;46158;52.850;6.970;2023-03-23T12:30:02;14.32;;;2.83;;
60312;SDS011;46158;52.850;6.970;2023-03-23T12:43:26;9.90;;;2.50;;
60312;SDS011;46158;52.850;6.970;2023-03-23T12:46:06;10.33;;;2.50;;
60312;SDS011;46158;52.850;6.970;2023-03-23T12:57:53;13.10;;;2.60;;
60312;SDS011;46158;52.850;6.970;2023-03-23T13:00:24;11.32;;;2.50;;
60312;SDS011;46158;52.850;6.970;2023-03-23T13:03:07;11.43;;;2.80;;
60312;SDS011;46158;52.850;6.970;2023-03-23T13:06:13;9.48;;;2.60;;
60312;SDS011;46158;52.850;6.970;2023-03-23T13:11:52;9.80;;;2.40;;
60312;SDS011;46158;52.850;6.970;2023-03-23T13:14:49;13.00;;;2.60;;
60312;SDS011;46158;52.850;6.970;2023-03-23T13:17:28;10.77;;;2.53;;
60312;SDS011;46158;52.850;6.970;2023-03-23T13:22:47;13.13;;;2.63;;
60312;SDS011;46158;52.850;6.970;2023-03-23T13:25:27;10.85;;;2.70;;
60312;SDS011;46158;52.850;6.970;2023-03-23T13:28:18;12.00;;;2.60;;
60312;SDS011;46158;52.850;6.970;2023-03-23T13:31:12;12.57;;;2.55;;
60312;SDS011;46158;52.850;6.970;2023-03-23T13:33:50;12.23;;;2.70;;
60312;SDS011;46158;52.850;6.970;2023-03-23T13:36:23;11.93;;;2.38;;
60312;SDS011;46158;52.850;6.970;2023-03-23T13:38:58;12.38;;;2.45;;
60312;SDS011;46158;52.850;6.970;2023-03-23T13:41:25;11.27;;;2.40;;
60312;SDS011;46158;52.850;6.970;2023-03-23T13:44:16;11.02;;;2.42;;
60312;SDS011;46158;52.850;6.970;2023-03-23T13:46:53;8.07;;;2.40;;
60312;SDS011;46158;52.850;6.970;2023-03-23T13:49:20;11.38;;;2.90;;
60312;SDS011;46158;52.850;6.970;2023-03-23T13:51:52;12.55;;;2.55;;
60312;SDS011;46158;52.850;6.970;2023-03-23T13:54:30;15.68;;;2.95;;
60312;SDS011;46158;52.850;6.970;2023-03-23T14:03:14;9.32;;;2.30;;
60312;SDS011;46158;52.850;6.970;2023-03-23T14:06:01;8.75;;;2.30;;
60312;SDS011;46158;52.850;6.970;2023-03-23T14:11:09;11.13;;;2.38;;
60312;SDS011;46158;52.850;6.970;2023-03-23T14:13:43;10.73;;;2.40;;
60312;SDS011;46158;52.850;6.970;2023-03-23T14:16:43;12.88;;;2.38;;
60312;SDS011;46158;52.850;6.970;2023-03-23T14:19:39;14.18;;;2.67;;
60312;SDS011;46158;52.850;6.970;2023-03-23T14:22:23;11.10;;;2.40;;
60312;SDS011;46158;52.850;6.970;2023-03-23T14:24:51;12.10;;;2.35;;
60312;SDS011;46158;52.850;6.970;2023-03-23T14:27:26;13.55;;;2.80;;
60312;SDS011;46158;52.850;6.970;2023-03-23T14:29:59;12.13;;;2.15;;
60312;SDS011;46158;52.850;6.970;2023-03-23T14:32:27;13.15;;;2.50;;
60312;SDS011;46158;52.850;6.970;2023-03-23T14:34:56;12.90;;;2.55;;
60312;SDS011;46158;52.850;6.970;2023-03-23T14:37:22;9.77;;;2.45;;
60312;SDS011;46158;52.850;6.970;2023-03-23T14:39:53;9.45;;;2.05;;
60312;SDS011;46158;52.850;6.970;2023-03-23T14:42:28;8.95;;;2.30;;
60312;SDS011;46158;52.850;6.970;2023-03-23T14:44:57;14.52;;;2.53;;
60312;SDS011;46158;52.850;6.970;2023-03-23T14:47:27;11.35;;;2.50;;
60312;SDS011;46158;52.850;6.970;2023-03-23T14:50:23;10.95;;;2.33;;
60312;SDS011;46158;52.850;6.970;2023-03-23T14:53:03;10.45;;;2.40;;
60312;SDS011;46158;52.850;6.970;2023-03-23T14:55:36;11.80;;;2.42;;
60312;SDS011;46158;52.850;6.970;2023-03-23T14:58:06;7.80;;;2.00;;
60312;SDS011;46158;52.850;6.970;2023-03-23T15:00:43;10.38;;;2.33;;
60312;SDS011;46158;52.850;6.970;2023-03-23T15:03:19;10.68;;;2.70;;
60312;SDS011;46158;52.850;6.970;2023-03-23T15:05:56;11.10;;;2.17;;
60312;SDS011;46158;52.850;6.970;2023-03-23T15:08:30;11.93;;;2.55;;
60312;SDS011;46158;52.850;6.970;2023-03-23T15:13:49;10.77;;;2.20;;
60312;SDS011;46158;52.850;6.970;2023-03-23T15:19:02;10.75;;;2.38;;
60312;SDS011;46158;52.850;6.970;2023-03-23T15:24:39;10.13;;;2.30;;
60312;SDS011;46158;52.850;6.970;2023-03-23T15:27:14;6.50;;;2.05;;
60312;SDS011;46158;52.850;6.970;2023-03-23T15:29:46;7.93;;;2.00;;
60312;SDS011;46158;52.850;6.970;2023-03-23T15:32:24;10.48;;;2.42;;
60312;SDS011;46158;52.850;6.970;2023-03-23T15:34:56;9.52;;;2.38;;
60312;SDS011;46158;52.850;6.970;2023-03-23T15:37:28;11.50;;;2.40;;
60312;SDS011;46158;52.850;6.970;2023-03-23T15:39:59;10.55;;;2.38;;
60312;SDS011;46158;52.850;6.970;2023-03-23T15:42:30;11.25;;;2.38;;
60312;SDS011;46158;52.850;6.970;2023-03-23T15:45:12;9.23;;;2.28;;
60312;SDS011;46158;52.850;6.970;2023-03-23T15:47:52;10.43;;;2.38;;
60312;SDS011;46158;52.850;6.970;2023-03-23T15:50:20;8.80;;;2.28;;
60312;SDS011;46158;52.850;6.970;2023-03-23T15:53:00;8.35;;;2.28;;
60312;SDS011;46158;52.850;6.970;2023-03-23T15:55:40;9.50;;;2.30;;
60312;SDS011;46158;52.850;6.970;2023-03-23T15:58:20;9.45;;;2.38;;
60312;SDS011;46158;52.850;6.970;2023-03-23T16:00:49;11.18;;;2.50;;
60312;SDS011;46158;52.850;6.970;2023-03-23T16:03:18;12.55;;;2.70;;
60312;SDS011;46158;52.850;6.970;2023-03-23T16:05:49;12.15;;;2.72;;
60312;SDS011;46158;52.850;6.970;2023-03-23T16:08:18;11.25;;;2.40;;
60312;SDS011;46158;52.850;6.970;2023-03-23T16:10:48;11.88;;;2.40;;
60312;SDS011;46158;52.850;6.970;2023-03-23T16:13:17;8.55;;;2.30;;
60312;SDS011;46158;52.850;6.970;2023-03-23T16:15:45;9.38;;;2.40;;
60312;SDS011;46158;52.850;6.970;2023-03-23T16:18:22;12.35;;;2.70;;
60312;SDS011;46158;52.850;6.970;2023-03-23T16:20:52;11.25;;;2.35;;
60312;SDS011;46158;52.850;6.970;2023-03-23T16:23:18;8.68;;;2.45;;
60312;SDS011;46158;52.850;6.970;2023-03-23T16:25:45;17.98;;;4.53;;
60312;SDS011;46158;52.850;6.970;2023-03-23T16:28:11;25.88;;;9.00;;
60312;SDS011;46158;52.850;6.970;2023-03-23T16:30:38;31.98;;;14.02;;
60312;SDS011;46158;52.850;6.970;2023-03-23T16:33:05;37.40;;;17.17;;
60312;SDS011;46158;52.850;6.970;2023-03-23T16:35:32;36.17;;;17.15;;
60312;SDS011;46158;52.850;6.970;2023-03-23T16:37:58;32.88;;;13.45;;
60312;SDS011;46158;52.850;6.970;2023-03-23T16:40:34;25.55;;;9.65;;
60312;SDS011;46158;52.850;6.970;2023-03-23T16:43:03;24.58;;;8.93;;
60312;SDS011;46158;52.850;6.970;2023-03-23T16:45:29;23.05;;;7.63;;
60312;SDS011;46158;52.850;6.970;2023-03-23T16:47:56;24.25;;;7.72;;
60312;SDS011;46158;52.850;6.970;2023-03-23T16:50:26;22.73;;;6.93;;
60312;SDS011;46158;52.850;6.970;2023-03-23T16:52:54;24.27;;;6.82;;
60312;SDS011;46158;52.850;6.970;2023-03-23T16:55:20;22.67;;;7.68;;
60312;SDS011;46158;52.850;6.970;2023-03-23T16:57:46;22.55;;;6.63;;
60312;SDS011;46158;52.850;6.970;2023-03-23T17:00:14;22.25;;;6.95;;
60312;SDS011;46158;52.850;6.970;2023-03-23T17:02:47;20.23;;;6.35;;
60312;SDS011;46158;52.850;6.970;2023-03-23T17:05:19;19.13;;;5.65;;
60312;SDS011;46158;52.850;6.970;2023-03-23T17:10:22;22.92;;;6.43;;
60312;SDS011;46158;52.850;6.970;2023-03-23T17:12:58;20.35;;;5.13;;